sensor_id;sensor_type;location;lat;lon;timestamp;pressure;altitude;pressure_sealevel;temperature;humidity
43814;BME280;29669;55.706;37.656;2023-09-19T00:00:57;100502.19;;;13.19;nan
43814;BME280;29669;55.706;37.656;2023-09-19T00:03:25;100492.88;;;13.08;nan
43814;BME280;29669;55.706;37.656;2023-09-19T00:05:53;100494.13;;;12.96;nan
43814;BME280;29669;55.706;37.656;2023-09-19T00:08:21;100503.56;;;12.89;nan
43814;BME280;29669;55.706;37.656;2023-09-19T00:10:54;100504.19;;;12.83;nan
43814;BME280;29669;55.706;37.656;2023-09-19T00:13:22;100499.81;;;12.84;nan
43814;BME280;29669;55.706;37.656;2023-09-19T00:15:49;100504.88;;;12.85;nan
43814;BME280;29669;55.706;37.656;2023-09-19T00:18:19;100503.41;;;12.91;nan
43814;BME280;29669;55.706;37.656;2023-09-19T00:20:49;100498.22;;;12.99;nan
43814;BME280;29669;55.706;37.656;2023-09-19T00:23:19;100497.63;;;13.05;nan
43814;BME280;29669;55.706;37.656;2023-09-19T00:25:48;100492.72;;;13.10;nan
43814;BME280;29669;55.706;37.656;2023-09-19T00:28:16;100492.56;;;13.11;nan
43814;BME280;29669;55.706;37.656;2023-09-19T00:30:45;100493.22;;;13.13;nan
43814;BME280;29669;55.706;37.656;2023-09-19T00:33:18;100495.81;;;13.13;nan
43814;BME280;29669;55.706;37.656;2023-09-19T00:35:53;100496.47;;;13.15;nan
43814;BME280;29669;55.706;37.656;2023-09-19T00:38:22;100491.44;;;13.14;nan
43814;BME280;29669;55.706;37.656;2023-09-19T00:40:54;100501.03;;;13.13;nan
43814;BME280;29669;55.706;37.656;2023-09-19T00:43:27;100509.50;;;13.15;nan
43814;BME280;29669;55.706;37.656;2023-09-19T00:45:56;100501.53;;;13.17;nan
43814;BME280;29669;55.706;37.656;2023-09-19T00:48:25;100510.81;;;13.19;nan
43814;BME280;29669;55.706;37.656;2023-09-19T00:50:57;100504.00;;;13.18;nan
43814;BME280;29669;55.706;37.656;2023-09-19T00:53:26;100503.66;;;13.30;nan
43814;BME280;29669;55.706;37.656;2023-09-19T00:55:57;100509.69;;;13.38;nan
43814;BME280;29669;55.706;37.656;2023-09-19T00:58:24;100514.25;;;13.44;nan
43814;BME280;29669;55.706;37.656;2023-09-19T01:00:53;100513.94;;;13.47;nan
43814;BME280;29669;55.706;37.656;2023-09-19T01:03:22;100504.00;;;13.51;nan
43814;BME280;29669;55.706;37.656;2023-09-19T01:05:50;100502.69;;;13.47;nan
43814;BME280;29669;55.706;37.656;2023-09-19T01:08:19;100500.72;;;13.41;nan
43814;BME280;29669;55.706;37.656;2023-09-19T01:10:54;100499.75;;;13.34;nan
43814;BME280;29669;55.706;37.656;2023-09-19T01:13:31;100501.72;;;13.32;nan
43814;BME280;29669;55.706;37.656;2023-09-19T01:16:38;100498.44;;;13.30;nan
43814;BME280;29669;55.706;37.656;2023-09-19T01:28:36;100505.13;;;13.24;nan
43814;BME280;29669;55.706;37.656;2023-09-19T01:31:10;100495.84;;;13.30;nan
43814;BME280;29669;55.706;37.656;2023-09-19T01:33:59;100494.22;;;13.37;nan
43814;BME280;29669;55.706;37.656;2023-09-19T01:36:29;100494.88;;;13.39;nan
43814;BME280;29669;55.706;37.656;2023-09-19T01:38:58;100491.78;;;13.43;nan
43814;BME280;29669;55.706;37.656;2023-09-19T01:41:51;100482.31;;;13.42;nan
43814;BME280;29669;55.706;37.656;2023-09-19T01:44:29;100490.94;;;13.43;nan
43814;BME280;29669;55.706;37.656;2023-09-19T01:47:04;100487.22;;;13.45;nan
43814;BME280;29669;55.706;37.656;2023-09-19T01:49:55;100485.09;;;13.49;nan
43814;BME280;29669;55.706;37.656;2023-09-19T01:52:28;100487.69;;;13.49;nan
43814;BME280;29669;55.706;37.656;2023-09-19T01:55:05;100486.69;;;13.50;nan
43814;BME280;29669;55.706;37.656;2023-09-19T01:57:54;100486.06;;;13.48;nan
43814;BME280;29669;55.706;37.656;2023-09-19T02:00:27;100475.63;;;13.48;nan
43814;BME280;29669;55.706;37.656;2023-09-19T02:02:57;100480.19;;;13.46;nan
43814;BME280;29669;55.706;37.656;2023-09-19T02:05:26;100464.69;;;13.36;nan
43814;BME280;29669;55.706;37.656;2023-09-19T02:07:57;100469.78;;;13.30;nan
43814;BME280;29669;55.706;37.656;2023-09-19T02:10:26;100459.03;;;13.16;nan
43814;BME280;29669;55.706;37.656;2023-09-19T02:12:53;100457.19;;;13.01;nan
43814;BME280;29669;55.706;37.656;2023-09-19T02:15:21;100451.78;;;12.78;nan
43814;BME280;29669;55.706;37.656;2023-09-19T02:17:49;100457.75;;;12.63;nan
43814;BME280;29669;55.706;37.656;2023-09-19T02:20:17;100461.13;;;12.47;nan
43814;BME280;29669;55.706;37.656;2023-09-19T02:22:47;100459.97;;;12.34;nan
43814;BME280;29669;55.706;37.656;2023-09-19T02:25:37;100457.94;;;12.19;nan
43814;BME280;29669;55.706;37.656;2023-09-19T02:28:08;100460.50;;;12.11;nan
43814;BME280;29669;55.706;37.656;2023-09-19T02:30:36;100454.63;;;12.01;nan
43814;BME280;29669;55.706;37.656;2023-09-19T02:33:04;100446.59;;;11.95;nan
43814;BME280;29669;55.706;37.656;2023-09-19T02:35:32;100457.50;;;11.90;nan
43814;BME280;29669;55.706;37.656;2023-09-19T02:38:03;100454.22;;;11.88;nan
43814;BME280;29669;55.706;37.656;2023-09-19T02:40:34;100456.94;;;11.87;nan
43814;BME280;29669;55.706;37.656;2023-09-19T02:43:03;100460.19;;;11.81;nan
43814;BME280;29669;55.706;37.656;2023-09-19T02:45:32;100453.16;;;11.73;nan
43814;BME280;29669;55.706;37.656;2023-09-19T02:48:01;100457.44;;;11.65;nan
43814;BME280;29669;55.706;37.656;2023-09-19T02:50:29;100468.16;;;11.62;nan
43814;BME280;29669;55.706;37.656;2023-09-19T02:52:57;100455.75;;;11.56;nan
43814;BME280;29669;55.706;37.656;2023-09-19T02:55:25;100456.06;;;11.53;nan
43814;BME280;29669;55.706;37.656;2023-09-19T02:57:54;100460.59;;;11.51;nan
43814;BME280;29669;55.706;37.656;2023-09-19T03:00:24;100457.19;;;11.50;nan
43814;BME280;29669;55.706;37.656;2023-09-19T03:02:55;100453.09;;;11.48;nan
43814;BME280;29669;55.706;37.656;2023-09-19T03:05:24;100449.69;;;11.47;nan
43814;BME280;29669;55.706;37.656;2023-09-19T03:07:52;100456.06;;;11.53;nan
43814;BME280;29669;55.706;37.656;2023-09-19T03:10:21;100453.44;;;11.53;nan
43814;BME280;29669;55.706;37.656;2023-09-19T03:12:49;100461.31;;;11.61;nan
43814;BME280;29669;55.706;37.656;2023-09-19T03:15:18;100459.13;;;11.66;nan
43814;BME280;29669;55.706;37.656;2023-09-19T03:17:48;100467.78;;;11.74;nan
43814;BME280;29669;55.706;37.656;2023-09-19T03:20:20;100464.41;;;11.82;nan
43814;BME280;29669;55.706;37.656;2023-09-19T03:22:50;100459.25;;;11.90;nan
43814;BME280;29669;55.706;37.656;2023-09-19T03:25:20;100455.94;;;12.05;nan
43814;BME280;29669;55.706;37.656;2023-09-19T03:27:51;100458.75;;;12.20;nan
43814;BME280;29669;55.706;37.656;2023-09-19T03:30:20;100458.31;;;12.32;nan
43814;BME280;29669;55.706;37.656;2023-09-19T03:32:49;100459.00;;;12.43;nan
43814;BME280;29669;55.706;37.656;2023-09-19T03:35:18;100465.41;;;12.56;nan
43814;BME280;29669;55.706;37.656;2023-09-19T03:37:47;100463.16;;;12.69;nan
43814;BME280;29669;55.706;37.656;2023-09-19T03:40:15;100451.94;;;12.77;nan
43814;BME280;29669;55.706;37.656;2023-09-19T03:42:45;100451.44;;;12.81;nan
43814;BME280;29669;55.706;37.656;2023-09-19T03:45:14;100452.63;;;12.87;nan
43814;BME280;29669;55.706;37.656;2023-09-19T03:47:49;100456.38;;;12.92;nan
43814;BME280;29669;55.706;37.656;2023-09-19T03:50:20;100451.78;;;13.02;nan
43814;BME280;29669;55.706;37.656;2023-09-19T03:52:49;100453.63;;;13.10;nan
43814;BME280;29669;55.706;37.656;2023-09-19T03:55:17;100454.28;;;13.20;nan
43814;BME280;29669;55.706;37.656;2023-09-19T03:57:48;100456.91;;;13.28;nan
43814;BME280;29669;55.706;37.656;2023-09-19T04:00:17;100450.03;;;13.27;nan
43814;BME280;29669;55.706;37.656;2023-09-19T04:02:48;100461.31;;;13.36;nan
43814;BME280;29669;55.706;37.656;2023-09-19T04:05:17;100460.97;;;13.39;nan
43814;BME280;29669;55.706;37.656;2023-09-19T04:07:45;100453.63;;;13.42;nan
43814;BME280;29669;55.706;37.656;2023-09-19T04:10:17;100446.13;;;13.47;nan
43814;BME280;29669;55.706;37.656;2023-09-19T04:12:53;100440.25;;;13.53;nan
43814;BME280;29669;55.706;37.656;2023-09-19T04:15:23;100445.63;;;13.60;nan
43814;BME280;29669;55.706;37.656;2023-09-19T04:17:54;100452.47;;;13.61;nan
43814;BME280;29669;55.706;37.656;2023-09-19T04:20:22;100446.59;;;13.67;nan
43814;BME280;29669;55.706;37.656;2023-09-19T04:23:00;100451.63;;;13.76;nan
43814;BME280;29669;55.706;37.656;2023-09-19T04:25:50;100434.81;;;13.79;nan
43814;BME280;29669;55.706;37.656;2023-09-19T04:28:18;100442.78;;;13.85;nan
43814;BME280;29669;55.706;37.656;2023-09-19T04:30:46;100432.19;;;13.87;nan
43814;BME280;29669;55.706;37.656;2023-09-19T04:33:14;100430.72;;;13.92;nan
43814;BME280;29669;55.706;37.656;2023-09-19T04:35:44;100430.53;;;13.94;nan
43814;BME280;29669;55.706;37.656;2023-09-19T04:38:12;100427.75;;;13.95;nan
43814;BME280;29669;55.706;37.656;2023-09-19T04:40:42;100421.22;;;13.99;nan
43814;BME280;29669;55.706;37.656;2023-09-19T04:43:09;100423.47;;;14.02;nan
43814;BME280;29669;55.706;37.656;2023-09-19T04:45:38;100420.06;;;14.02;nan
43814;BME280;29669;55.706;37.656;2023-09-19T04:48:06;100421.66;;;14.11;nan
43814;BME280;29669;55.706;37.656;2023-09-19T04:50:36;100415.81;;;14.09;nan
43814;BME280;29669;55.706;37.656;2023-09-19T04:53:04;100422.97;;;14.15;nan
43814;BME280;29669;55.706;37.656;2023-09-19T04:55:32;100421.75;;;14.26;nan
43814;BME280;29669;55.706;37.656;2023-09-19T04:58:00;100427.81;;;14.34;nan
43814;BME280;29669;55.706;37.656;2023-09-19T05:00:28;100434.94;;;14.40;nan
43814;BME280;29669;55.706;37.656;2023-09-19T05:02:58;100435.91;;;14.47;nan
43814;BME280;29669;55.706;37.656;2023-09-19T05:05:25;100432.06;;;14.58;nan
43814;BME280;29669;55.706;37.656;2023-09-19T05:07:55;100433.81;;;14.65;nan
43814;BME280;29669;55.706;37.656;2023-09-19T05:10:23;100417.81;;;14.68;nan
43814;BME280;29669;55.706;37.656;2023-09-19T05:12:54;100417.81;;;14.68;nan
43814;BME280;29669;55.706;37.656;2023-09-19T05:15:21;100422.00;;;14.77;nan
43814;BME280;29669;55.706;37.656;2023-09-19T05:17:50;100422.50;;;14.95;nan
43814;BME280;29669;55.706;37.656;2023-09-19T05:20:23;100409.66;;;15.08;nan
43814;BME280;29669;55.706;37.656;2023-09-19T05:23:06;100404.38;;;15.17;nan
43814;BME280;29669;55.706;37.656;2023-09-19T05:25:40;100406.72;;;15.26;nan
43814;BME280;29669;55.706;37.656;2023-09-19T05:28:09;100406.47;;;15.36;nan
43814;BME280;29669;55.706;37.656;2023-09-19T05:30:39;100403.63;;;15.45;nan
43814;BME280;29669;55.706;37.656;2023-09-19T05:33:07;100407.25;;;15.44;nan
43814;BME280;29669;55.706;37.656;2023-09-19T05:35:36;100404.81;;;15.43;nan
43814;BME280;29669;55.706;37.656;2023-09-19T05:38:09;100401.63;;;15.33;nan
43814;BME280;29669;55.706;37.656;2023-09-19T05:40:37;100395.81;;;15.23;nan
43814;BME280;29669;55.706;37.656;2023-09-19T05:43:06;100392.56;;;15.21;nan
43814;BME280;29669;55.706;37.656;2023-09-19T05:45:34;100396.06;;;15.13;nan
43814;BME280;29669;55.706;37.656;2023-09-19T05:48:13;100400.38;;;15.06;nan
43814;BME280;29669;55.706;37.656;2023-09-19T05:50:41;100399.09;;;15.02;nan
43814;BME280;29669;55.706;37.656;2023-09-19T05:53:09;100402.88;;;14.99;nan
43814;BME280;29669;55.706;37.656;2023-09-19T05:55:40;100394.13;;;14.92;nan
43814;BME280;29669;55.706;37.656;2023-09-19T05:58:08;100400.03;;;14.86;nan
43814;BME280;29669;55.706;37.656;2023-09-19T06:00:37;100398.13;;;14.80;nan
43814;BME280;29669;55.706;37.656;2023-09-19T06:03:06;100392.78;;;14.74;nan
43814;BME280;29669;55.706;37.656;2023-09-19T06:05:34;100392.59;;;14.75;nan
43814;BME280;29669;55.706;37.656;2023-09-19T06:08:02;100397.78;;;14.83;nan
43814;BME280;29669;55.706;37.656;2023-09-19T06:10:35;100397.41;;;14.86;nan
43814;BME280;29669;55.706;37.656;2023-09-19T06:13:05;100397.00;;;14.97;nan
43814;BME280;29669;55.706;37.656;2023-09-19T06:15:37;100391.72;;;15.05;nan
43814;BME280;29669;55.706;37.656;2023-09-19T06:18:10;100388.41;;;15.12;nan
43814;BME280;29669;55.706;37.656;2023-09-19T06:20:41;100386.50;;;15.20;nan
43814;BME280;29669;55.706;37.656;2023-09-19T06:23:12;100390.06;;;15.27;nan
43814;BME280;29669;55.706;37.656;2023-09-19T06:25:40;100389.31;;;15.33;nan
43814;BME280;29669;55.706;37.656;2023-09-19T06:28:08;100388.81;;;15.38;nan
43814;BME280;29669;55.706;37.656;2023-09-19T06:30:39;100385.69;;;15.42;nan
43814;BME280;29669;55.706;37.656;2023-09-19T06:33:10;100380.53;;;15.49;nan
43814;BME280;29669;55.706;37.656;2023-09-19T06:35:41;100381.09;;;15.59;nan
43814;BME280;29669;55.706;37.656;2023-09-19T06:38:09;100381.19;;;15.65;nan
43814;BME280;29669;55.706;37.656;2023-09-19T06:40:41;100382.25;;;15.71;nan
43814;BME280;29669;55.706;37.656;2023-09-19T06:43:31;100374.50;;;15.77;nan
43814;BME280;29669;55.706;37.656;2023-09-19T06:46:02;100374.69;;;15.90;nan
43814;BME280;29669;55.706;37.656;2023-09-19T06:48:31;100374.13;;;16.10;nan
43814;BME280;29669;55.706;37.656;2023-09-19T06:51:01;100375.53;;;16.27;nan
43814;BME280;29669;55.706;37.656;2023-09-19T06:53:32;100374.06;;;16.60;nan
43814;BME280;29669;55.706;37.656;2023-09-19T06:56:03;100394.75;;;16.90;nan
43814;BME280;29669;55.706;37.656;2023-09-19T06:58:31;100397.16;;;17.13;nan
43814;BME280;29669;55.706;37.656;2023-09-19T07:00:59;100388.69;;;17.39;nan
43814;BME280;29669;55.706;37.656;2023-09-19T07:03:28;100384.66;;;17.70;nan
43814;BME280;29669;55.706;37.656;2023-09-19T07:05:56;100384.84;;;18.03;nan
43814;BME280;29669;55.706;37.656;2023-09-19T07:08:26;100385.75;;;18.36;nan
43814;BME280;29669;55.706;37.656;2023-09-19T07:10:53;100379.19;;;18.60;nan
43814;BME280;29669;55.706;37.656;2023-09-19T07:13:23;100379.41;;;18.78;nan
43814;BME280;29669;55.706;37.656;2023-09-19T07:15:52;100376.19;;;18.96;nan
43814;BME280;29669;55.706;37.656;2023-09-19T07:18:21;100375.78;;;19.05;nan
43814;BME280;29669;55.706;37.656;2023-09-19T07:20:49;100374.78;;;19.13;nan
43814;BME280;29669;55.706;37.656;2023-09-19T07:23:21;100373.97;;;19.19;nan
43814;BME280;29669;55.706;37.656;2023-09-19T07:25:56;100374.78;;;19.32;nan
43814;BME280;29669;55.706;37.656;2023-09-19T07:28:24;100375.16;;;19.49;nan
43814;BME280;29669;55.706;37.656;2023-09-19T07:30:52;100371.25;;;19.71;nan
43814;BME280;29669;55.706;37.656;2023-09-19T07:33:20;100367.16;;;19.88;nan
43814;BME280;29669;55.706;37.656;2023-09-19T07:35:47;100371.56;;;20.01;nan
43814;BME280;29669;55.706;37.656;2023-09-19T07:38:15;100378.00;;;20.11;nan
43814;BME280;29669;55.706;37.656;2023-09-19T07:40:44;100374.34;;;20.12;nan
43814;BME280;29669;55.706;37.656;2023-09-19T07:43:11;100371.31;;;20.15;nan
43814;BME280;29669;55.706;37.656;2023-09-19T07:45:39;100374.16;;;20.20;nan
43814;BME280;29669;55.706;37.656;2023-09-19T07:48:07;100382.22;;;20.25;nan
43814;BME280;29669;55.706;37.656;2023-09-19T07:50:41;100371.28;;;20.28;nan
43814;BME280;29669;55.706;37.656;2023-09-19T07:53:11;100362.72;;;20.33;nan
43814;BME280;29669;55.706;37.656;2023-09-19T07:55:41;100349.03;;;20.49;nan
43814;BME280;29669;55.706;37.656;2023-09-19T07:58:09;100346.69;;;20.66;nan
43814;BME280;29669;55.706;37.656;2023-09-19T08:00:36;100332.66;;;20.72;nan
43814;BME280;29669;55.706;37.656;2023-09-19T08:03:04;100337.59;;;20.86;nan
43814;BME280;29669;55.706;37.656;2023-09-19T08:05:43;100331.38;;;21.05;nan
43814;BME280;29669;55.706;37.656;2023-09-19T08:08:11;100339.84;;;21.14;nan
43814;BME280;29669;55.706;37.656;2023-09-19T08:10:42;100333.16;;;21.29;nan
43814;BME280;29669;55.706;37.656;2023-09-19T08:13:13;100339.50;;;21.46;nan
43814;BME280;29669;55.706;37.656;2023-09-19T08:15:43;100343.25;;;21.57;nan
43814;BME280;29669;55.706;37.656;2023-09-19T08:18:11;100341.06;;;21.72;nan
43814;BME280;29669;55.706;37.656;2023-09-19T08:20:40;100323.84;;;21.99;nan
43814;BME280;29669;55.706;37.656;2023-09-19T08:23:09;100321.78;;;22.19;nan
43814;BME280;29669;55.706;37.656;2023-09-19T08:25:37;100331.06;;;22.10;nan
43814;BME280;29669;55.706;37.656;2023-09-19T08:28:06;100328.88;;;21.89;nan
43814;BME280;29669;55.706;37.656;2023-09-19T08:30:36;100320.56;;;21.68;nan
43814;BME280;29669;55.706;37.656;2023-09-19T08:37:17;100327.28;;;21.27;nan
43814;BME280;29669;55.706;37.656;2023-09-19T08:39:46;100325.19;;;21.36;nan
43814;BME280;29669;55.706;37.656;2023-09-19T08:42:14;100322.00;;;21.27;nan
43814;BME280;29669;55.706;37.656;2023-09-19T08:44:44;100311.25;;;21.29;nan
43814;BME280;29669;55.706;37.656;2023-09-19T08:47:16;100312.13;;;21.23;nan
43814;BME280;29669;55.706;37.656;2023-09-19T08:49:53;100308.16;;;21.14;nan
43814;BME280;29669;55.706;37.656;2023-09-19T08:52:27;100316.44;;;21.17;nan
43814;BME280;29669;55.706;37.656;2023-09-19T08:54:58;100312.19;;;21.16;nan
43814;BME280;29669;55.706;37.656;2023-09-19T08:57:33;100311.81;;;21.13;nan
43814;BME280;29669;55.706;37.656;2023-09-19T09:00:02;100300.06;;;21.09;nan
43814;BME280;29669;55.706;37.656;2023-09-19T09:02:40;100294.47;;;20.99;nan
43814;BME280;29669;55.706;37.656;2023-09-19T09:05:09;100289.38;;;20.97;nan
43814;BME280;29669;55.706;37.656;2023-09-19T09:07:40;100287.13;;;21.01;nan
43814;BME280;29669;55.706;37.656;2023-09-19T09:10:08;100287.47;;;21.11;nan
43814;BME280;29669;55.706;37.656;2023-09-19T09:12:36;100289.81;;;21.19;nan
43814;BME280;29669;55.706;37.656;2023-09-19T09:15:04;100287.03;;;21.14;nan
43814;BME280;29669;55.706;37.656;2023-09-19T09:17:32;100291.72;;;21.30;nan
43814;BME280;29669;55.706;37.656;2023-09-19T09:20:00;100299.66;;;21.48;nan
43814;BME280;29669;55.706;37.656;2023-09-19T09:22:30;100296.06;;;21.61;nan
43814;BME280;29669;55.706;37.656;2023-09-19T09:24:59;100300.25;;;21.86;nan
43814;BME280;29669;55.706;37.656;2023-09-19T09:27:31;100300.34;;;22.09;nan
43814;BME280;29669;55.706;37.656;2023-09-19T09:30:00;100287.63;;;22.29;nan
43814;BME280;29669;55.706;37.656;2023-09-19T09:32:31;100288.59;;;22.35;nan
43814;BME280;29669;55.706;37.656;2023-09-19T09:35:07;100290.56;;;22.51;nan
43814;BME280;29669;55.706;37.656;2023-09-19T09:37:38;100286.34;;;22.62;nan
43814;BME280;29669;55.706;37.656;2023-09-19T09:40:06;100271.38;;;22.56;nan
43814;BME280;29669;55.706;37.656;2023-09-19T09:42:47;100278.22;;;22.63;nan
43814;BME280;29669;55.706;37.656;2023-09-19T09:45:24;100277.97;;;22.65;nan
43814;BME280;29669;55.706;37.656;2023-09-19T09:48:31;100274.84;;;22.68;nan
43814;BME280;29669;55.706;37.656;2023-09-19T09:50:59;100271.78;;;22.82;nan
43814;BME280;29669;55.706;37.656;2023-09-19T09:53:30;100267.63;;;22.98;nan
43814;BME280;29669;55.706;37.656;2023-09-19T09:56:06;100269.44;;;23.09;nan
43814;BME280;29669;55.706;37.656;2023-09-19T09:58:49;100280.03;;;23.32;nan
43814;BME280;29669;55.706;37.656;2023-09-19T10:01:17;100271.16;;;23.38;nan
43814;BME280;29669;55.706;37.656;2023-09-19T10:03:45;100272.66;;;23.46;nan
43814;BME280;29669;55.706;37.656;2023-09-19T10:06:17;100268.81;;;23.53;nan
43814;BME280;29669;55.706;37.656;2023-09-19T10:09:10;100264.09;;;23.55;nan
43814;BME280;29669;55.706;37.656;2023-09-19T10:11:46;100244.13;;;23.64;nan
43814;BME280;29669;55.706;37.656;2023-09-19T10:14:17;100248.00;;;23.73;nan
43814;BME280;29669;55.706;37.656;2023-09-19T10:16:53;100242.91;;;23.83;nan
43814;BME280;29669;55.706;37.656;2023-09-19T10:20:06;100253.94;;;24.03;nan
43814;BME280;29669;55.706;37.656;2023-09-19T10:22:46;100251.72;;;24.00;nan
43814;BME280;29669;55.706;37.656;2023-09-19T10:25:28;100246.22;;;23.90;nan
43814;BME280;29669;55.706;37.656;2023-09-19T10:27:58;100244.03;;;23.87;nan
43814;BME280;29669;55.706;37.656;2023-09-19T10:30:31;100236.28;;;23.97;nan
43814;BME280;29669;55.706;37.656;2023-09-19T10:33:02;100231.75;;;23.98;nan
43814;BME280;29669;55.706;37.656;2023-09-19T10:35:35;100232.06;;;23.85;nan
43814;BME280;29669;55.706;37.656;2023-09-19T10:38:14;100221.84;;;23.49;nan
43814;BME280;29669;55.706;37.656;2023-09-19T10:40:50;100228.69;;;23.10;nan
43814;BME280;29669;55.706;37.656;2023-09-19T10:43:20;100226.19;;;22.69;nan
43814;BME280;29669;55.706;37.656;2023-09-19T10:45:49;100222.25;;;22.36;nan
43814;BME280;29669;55.706;37.656;2023-09-19T10:48:20;100212.78;;;22.17;nan
43814;BME280;29669;55.706;37.656;2023-09-19T10:51:16;100218.38;;;22.09;nan
43814;BME280;29669;55.706;37.656;2023-09-19T10:56:23;100214.78;;;21.92;nan
43814;BME280;29669;55.706;37.656;2023-09-19T10:59:15;100215.69;;;21.98;nan
43814;BME280;29669;55.706;37.656;2023-09-19T11:02:17;100211.94;;;22.05;nan
43814;BME280;29669;55.706;37.656;2023-09-19T11:04:45;100208.06;;;22.19;nan
43814;BME280;29669;55.706;37.656;2023-09-19T11:07:15;100199.00;;;22.27;nan
43814;BME280;29669;55.706;37.656;2023-09-19T11:09:51;100205.22;;;22.32;nan
43814;BME280;29669;55.706;37.656;2023-09-19T11:15:00;100191.75;;;22.34;nan
43814;BME280;29669;55.706;37.656;2023-09-19T11:17:34;100203.72;;;22.36;nan
43814;BME280;29669;55.706;37.656;2023-09-19T11:30:46;100198.59;;;22.65;nan
43814;BME280;29669;55.706;37.656;2023-09-19T11:33:29;100191.09;;;22.62;nan
43814;BME280;29669;55.706;37.656;2023-09-19T11:36:07;100189.94;;;22.69;nan
43814;BME280;29669;55.706;37.656;2023-09-19T11:43:49;100181.97;;;23.04;nan
43814;BME280;29669;55.706;37.656;2023-09-19T11:46:24;100180.34;;;23.14;nan
43814;BME280;29669;55.706;37.656;2023-09-19T11:48:52;100182.16;;;23.25;nan
43814;BME280;29669;55.706;37.656;2023-09-19T11:51:21;100187.31;;;23.32;nan
43814;BME280;29669;55.706;37.656;2023-09-19T11:53:51;100167.19;;;23.31;nan
43814;BME280;29669;55.706;37.656;2023-09-19T11:56:21;100170.50;;;23.26;nan
43814;BME280;29669;55.706;37.656;2023-09-19T11:58:52;100167.84;;;23.26;nan
43814;BME280;29669;55.706;37.656;2023-09-19T12:01:25;100163.25;;;23.33;nan
43814;BME280;29669;55.706;37.656;2023-09-19T12:03:58;100155.25;;;23.45;nan
43814;BME280;29669;55.706;37.656;2023-09-19T12:06:28;100157.06;;;23.56;nan
43814;BME280;29669;55.706;37.656;2023-09-19T12:09:26;100155.78;;;23.59;nan
43814;BME280;29669;55.706;37.656;2023-09-19T12:17:24;100136.97;;;23.88;nan
43814;BME280;29669;55.706;37.656;2023-09-19T12:25:11;100128.47;;;24.19;nan
43814;BME280;29669;55.706;37.656;2023-09-19T12:29:00;100122.31;;;24.52;nan
43814;BME280;29669;55.706;37.656;2023-09-19T12:36:31;100109.69;;;26.56;nan
43814;BME280;29669;55.706;37.656;2023-09-19T12:39:24;100104.09;;;27.09;nan
43814;BME280;29669;55.706;37.656;2023-09-19T12:41:52;100101.53;;;27.49;nan
43814;BME280;29669;55.706;37.656;2023-09-19T12:44:20;100106.38;;;27.98;nan
43814;BME280;29669;55.706;37.656;2023-09-19T12:46:48;100104.22;;;28.20;nan
43814;BME280;29669;55.706;37.656;2023-09-19T12:49:22;100101.22;;;28.41;nan
43814;BME280;29669;55.706;37.656;2023-09-19T12:51:54;100102.78;;;28.67;nan
43814;BME280;29669;55.706;37.656;2023-09-19T12:54:51;100094.97;;;28.86;nan
43814;BME280;29669;55.706;37.656;2023-09-19T12:58:50;100096.97;;;29.14;nan
43814;BME280;29669;55.706;37.656;2023-09-19T13:02:30;100093.66;;;29.32;nan
43814;BME280;29669;55.706;37.656;2023-09-19T13:14:22;100077.22;;;29.49;nan
43814;BME280;29669;55.706;37.656;2023-09-19T13:21:45;100070.09;;;29.34;nan
43814;BME280;29669;55.706;37.656;2023-09-19T13:25:08;100073.31;;;29.36;38.39
43814;BME280;29669;55.706;37.656;2023-09-19T13:33:10;100063.06;;;29.00;39.05
43814;BME280;29669;55.706;37.656;2023-09-19T13:41:27;100055.34;;;30.04;37.55
43814;BME280;29669;55.706;37.656;2023-09-19T14:03:24;100037.13;;;30.77;35.93
43814;BME280;29669;55.706;37.656;2023-09-19T14:05:50;100044.75;;;30.18;36.54
43814;BME280;29669;55.706;37.656;2023-09-19T14:08:17;100036.31;;;29.48;37.23
43814;BME280;29669;55.706;37.656;2023-09-19T14:10:44;100033.59;;;29.10;38.20
43814;BME280;29669;55.706;37.656;2023-09-19T14:13:10;100035.81;;;28.98;38.29
43814;BME280;29669;55.706;37.656;2023-09-19T14:15:39;100037.81;;;28.77;38.77
43814;BME280;29669;55.706;37.656;2023-09-19T14:18:06;100035.03;;;28.33;39.13
43814;BME280;29669;55.706;37.656;2023-09-19T14:20:38;100035.91;;;27.33;40.95
43814;BME280;29669;55.706;37.656;2023-09-19T14:23:09;100038.84;;;26.45;42.59
43814;BME280;29669;55.706;37.656;2023-09-19T14:25:37;100033.34;;;26.10;43.90
43814;BME280;29669;55.706;37.656;2023-09-19T14:28:08;100037.38;;;26.74;43.08
43814;BME280;29669;55.706;37.656;2023-09-19T14:30:36;100038.06;;;27.61;40.97
43814;BME280;29669;55.706;37.656;2023-09-19T14:33:06;100030.75;;;28.32;39.72
43814;BME280;29669;55.706;37.656;2023-09-19T14:35:39;100026.53;;;28.85;38.68
43814;BME280;29669;55.706;37.656;2023-09-19T14:38:07;100019.44;;;29.14;38.15
43814;BME280;29669;55.706;37.656;2023-09-19T14:40:35;100017.13;;;29.36;37.82
43814;BME280;29669;55.706;37.656;2023-09-19T14:43:04;100025.63;;;29.43;37.85
43814;BME280;29669;55.706;37.656;2023-09-19T14:45:32;100016.69;;;29.24;37.84
43814;BME280;29669;55.706;37.656;2023-09-19T14:48:00;100017.84;;;29.08;38.39
43814;BME280;29669;55.706;37.656;2023-09-19T14:50:27;100015.84;;;28.85;38.42
43814;BME280;29669;55.706;37.656;2023-09-19T14:52:57;100017.03;;;28.69;38.63
43814;BME280;29669;55.706;37.656;2023-09-19T14:55:25;100017.06;;;28.49;39.36
43814;BME280;29669;55.706;37.656;2023-09-19T14:57:54;100029.19;;;28.26;39.64
43814;BME280;29669;55.706;37.656;2023-09-19T15:00:24;100025.25;;;28.04;39.96